NRN weather

Weeze Airport
Weeze, North Rhine-Westphalia, Germany

Public forecast

Using degrees Celsius for public forecast. Weather courtesy of forecast.io.

Current aviation weather report (METAR) for Weeze Airport

Retrieved 2019/11/19 19:20 UTC (11 minutes ago):

EDLV 191920Z 20001KT CAVOK 04/03 Q1018

Aviation forecast (TAF) for Weeze Airport

Retrieved 2019/11/19 18:30 UTC (1 hour ago):

TAF TAF EDLV 191700Z 1918/2018 VRB03KT 9999 FEW030 BECMG 1923/2001 4500 BR BECMG 2001/2004 1500 BR BKN002 PROB40 TEMPO 2004/2012 0300 FZFG VV000